createdAt,value
2018-11-25T00:00:18.028Z,29.77
2018-11-25T00:04:21.089Z,32.60
2018-11-25T00:08:23.963Z,31.73
2018-11-25T00:12:27.017Z,30.20
2018-11-25T00:16:30.089Z,34.33
2018-11-25T00:20:32.964Z,29.73
2018-11-25T00:24:36.045Z,31.97
2018-11-25T00:28:38.911Z,29.83
2018-11-25T00:32:42.004Z,32.90
2018-11-25T00:36:44.861Z,32.70
2018-11-25T00:40:47.728Z,31.37
2018-11-25T00:44:50.800Z,34.60
2018-11-25T00:48:53.664Z,31.00
2018-11-25T00:52:56.728Z,29.13
2018-11-25T00:56:59.797Z,31.20
2018-11-25T01:01:02.642Z,30.90
2018-11-25T01:05:05.554Z,29.13
2018-11-25T01:09:08.688Z,29.90
2018-11-25T01:13:11.552Z,32.33
2018-11-25T01:17:14.404Z,28.17
2018-11-25T01:21:17.292Z,30.63
2018-11-25T01:25:20.143Z,28.20
2018-11-25T01:29:23.004Z,30.73
2018-11-25T01:33:25.868Z,27.77
2018-11-25T01:37:28.945Z,27.47
2018-11-25T01:41:32.011Z,29.93
2018-11-25T01:45:34.908Z,30.80
2018-11-25T01:49:37.768Z,30.57
2018-11-25T01:53:40.647Z,34.53
2018-11-25T01:57:43.732Z,30.97
2018-11-25T02:01:46.599Z,31.10
2018-11-25T02:05:49.464Z,28.37
2018-11-25T02:09:52.546Z,27.53
2018-11-25T02:13:55.400Z,25.80
2018-11-25T02:17:58.264Z,26.30
2018-11-25T02:22:01.364Z,33.20
2018-11-25T02:26:04.221Z,31.37
2018-11-25T02:30:08.716Z,30.50
2018-11-25T02:34:11.581Z,30.57
2018-11-25T02:38:14.443Z,28.93
2018-11-25T02:42:17.307Z,30.67
2018-11-25T02:46:20.163Z,29.33
2018-11-25T02:50:23.744Z,30.13
2018-11-25T02:54:26.603Z,29.03
2018-11-25T02:58:29.468Z,32.00
2018-11-25T03:02:32.524Z,35.93
2018-11-25T03:06:35.593Z,38.30
2018-11-25T03:10:38.440Z,36.03
2018-11-25T03:14:41.307Z,36.93
2018-11-25T03:18:44.374Z,36.30
2018-11-25T03:22:47.252Z,36.57
2018-11-25T03:26:50.106Z,36.77
2018-11-25T03:30:52.971Z,32.50
2018-11-25T03:34:56.035Z,32.53
2018-11-25T03:38:59.044Z,31.37
2018-11-25T03:43:01.904Z,31.80
2018-11-25T03:47:05.029Z,32.50
2018-11-25T03:51:07.880Z,32.90
2018-11-25T03:55:12.271Z,33.53
2018-11-25T03:59:15.124Z,33.17
2018-11-25T04:03:18.201Z,31.83
2018-11-25T04:07:21.052Z,31.13
2018-11-25T04:11:23.917Z,28.40
2018-11-25T04:15:26.780Z,30.10
2018-11-25T04:19:29.647Z,32.97
2018-11-25T04:23:32.724Z,31.83
2018-11-25T04:27:35.608Z,31.87
2018-11-25T04:31:38.671Z,32.63
2018-11-25T04:35:41.737Z,32.00
2018-11-25T04:39:44.592Z,30.20
2018-11-25T04:43:47.660Z,35.30
2018-11-25T04:47:50.515Z,29.40
2018-11-25T04:51:53.375Z,33.07
2018-11-25T04:55:56.223Z,32.50
2018-11-25T04:59:59.093Z,35.33
2018-11-25T05:04:02.157Z,31.10
2018-11-25T05:08:05.289Z,32.07
2018-11-25T05:12:08.350Z,32.40
2018-11-25T05:16:11.416Z,32.43
2018-11-25T05:20:14.572Z,34.57
2018-11-25T05:24:17.660Z,31.80
2018-11-25T05:28:20.520Z,33.93
2018-11-25T05:32:23.393Z,35.00
2018-11-25T05:36:26.444Z,34.30
2018-11-25T05:40:29.303Z,29.43
2018-11-25T05:44:32.168Z,31.87
2018-11-25T05:48:35.027Z,31.13
2018-11-25T05:52:37.880Z,31.87
2018-11-25T05:56:40.957Z,32.27
2018-11-25T06:00:43.808Z,32.60
2018-11-25T06:04:46.677Z,33.90
2018-11-25T06:08:49.525Z,33.53
2018-11-25T06:12:52.579Z,31.40
2018-11-25T06:16:55.446Z,37.70
2018-11-25T06:20:58.528Z,34.60
2018-11-25T06:25:01.388Z,33.53
2018-11-25T06:29:04.304Z,34.17
2018-11-25T06:33:07.123Z,36.20
2018-11-25T06:37:10.188Z,39.73
2018-11-25T06:41:13.248Z,35.73
2018-11-25T06:45:18.759Z,36.57
2018-11-25T06:49:21.825Z,41.50
2018-11-25T06:53:24.692Z,39.20
2018-11-25T06:57:27.564Z,37.43
2018-11-25T07:01:30.423Z,38.57
2018-11-25T07:05:33.488Z,39.60
2018-11-25T07:09:36.361Z,40.93
2018-11-25T07:13:39.212Z,38.27
2018-11-25T07:17:42.286Z,42.83
2018-11-25T07:21:45.136Z,38.27
2018-11-25T07:25:48.024Z,43.93
2018-11-25T07:29:51.081Z,41.53
2018-11-25T07:33:53.952Z,42.87
2018-11-25T07:37:56.804Z,41.80
2018-11-25T07:41:59.957Z,40.07
2018-11-25T07:46:02.812Z,39.70
2018-11-25T07:50:06.396Z,39.43
2018-11-25T07:54:09.252Z,39.43
2018-11-25T07:58:12.316Z,41.20
2018-11-25T08:02:15.172Z,39.50
2018-11-25T08:06:18.248Z,39.07
2018-11-25T08:10:21.300Z,39.50
2018-11-25T08:14:24.160Z,39.77
2018-11-25T08:18:27.228Z,39.70
2018-11-25T08:22:30.100Z,38.40
2018-11-25T08:26:32.980Z,38.90
2018-11-25T08:30:35.846Z,41.10
2018-11-25T08:34:38.704Z,40.47
2018-11-25T08:38:41.909Z,37.67
2018-11-25T08:42:44.764Z,40.37
2018-11-25T08:46:47.636Z,38.07
2018-11-25T08:50:50.696Z,37.40
2018-11-25T08:54:53.564Z,37.60
2018-11-25T08:58:56.424Z,38.27
2018-11-25T09:02:59.512Z,39.97
2018-11-25T09:07:02.372Z,37.13
2018-11-25T09:11:05.323Z,34.87
2018-11-25T09:15:14.424Z,34.37
2018-11-25T09:19:17.492Z,35.83
2018-11-25T09:23:20.350Z,35.57
2018-11-25T09:27:23.229Z,33.40
2018-11-25T09:31:26.296Z,35.10
2018-11-25T09:35:29.382Z,32.67
2018-11-25T09:39:32.429Z,34.97
2018-11-25T09:43:35.522Z,42.30
2018-11-25T09:47:38.423Z,37.43
2018-11-25T09:51:41.288Z,34.00
2018-11-25T09:55:44.149Z,36.97
2018-11-25T09:59:47.020Z,32.13
2018-11-25T10:03:49.888Z,33.33
2018-11-25T10:07:52.754Z,33.47
2018-11-25T10:11:55.813Z,31.17
2018-11-25T10:15:58.889Z,30.10
2018-11-25T10:20:01.741Z,33.03
2018-11-25T10:24:04.852Z,32.97
2018-11-25T10:28:07.744Z,32.30
2018-11-25T10:32:10.612Z,34.07
2018-11-25T10:36:13.680Z,30.97
2018-11-25T10:40:17.175Z,30.67
2018-11-25T10:44:20.024Z,32.50
2018-11-25T10:48:22.896Z,35.90
2018-11-25T10:52:25.960Z,32.93
2018-11-25T10:56:28.831Z,33.57
2018-11-25T11:00:37.891Z,36.67
2018-11-25T11:04:46.340Z,35.30
2018-11-25T11:08:49.437Z,34.97
2018-11-25T11:12:52.556Z,34.20
2018-11-25T11:16:55.625Z,36.80
2018-11-25T11:20:58.520Z,36.87
2018-11-25T11:25:01.380Z,38.43
2018-11-25T11:29:04.705Z,36.20
2018-11-25T11:33:07.765Z,39.80
2018-11-25T11:37:10.705Z,38.40
2018-11-25T11:41:13.561Z,36.60
2018-11-25T11:45:16.437Z,37.23
2018-11-25T11:49:19.296Z,35.37
2018-11-25T11:53:22.164Z,36.50
2018-11-25T11:57:25.240Z,40.00
2018-11-25T12:01:28.108Z,40.30
2018-11-25T12:05:30.973Z,41.17
2018-11-25T12:09:33.852Z,39.63
2018-11-25T12:13:36.714Z,36.27
2018-11-25T12:17:39.780Z,39.50
2018-11-25T12:21:42.667Z,41.67
2018-11-25T12:25:45.781Z,39.47
2018-11-25T12:29:49.512Z,39.77
2018-11-25T12:33:52.593Z,40.33
2018-11-25T12:37:55.450Z,37.00
2018-11-25T12:41:58.323Z,39.63
2018-11-25T12:46:01.421Z,38.40
2018-11-25T12:50:04.287Z,40.80
2018-11-25T12:54:07.148Z,40.97
2018-11-25T12:58:10.024Z,38.07
2018-11-25T13:02:12.884Z,39.97
2018-11-25T13:06:15.980Z,38.50
2018-11-25T13:10:18.840Z,37.53
2018-11-25T13:14:21.724Z,40.43
2018-11-25T13:18:24.604Z,41.10
2018-11-25T13:22:27.484Z,38.23
2018-11-25T13:26:30.353Z,36.83
2018-11-25T13:30:33.237Z,38.40
2018-11-25T13:34:36.344Z,36.00
2018-11-25T13:38:39.211Z,35.63
2018-11-25T13:42:42.152Z,34.10
2018-11-25T13:46:45.028Z,34.77
2018-11-25T13:50:48.097Z,37.70
2018-11-25T13:54:51.008Z,34.77
2018-11-25T13:58:53.904Z,36.67
2018-11-25T14:02:57.109Z,38.17
2018-11-25T14:06:59.998Z,36.80
2018-11-25T14:11:03.824Z,34.70
2018-11-25T14:15:08.420Z,38.90
2018-11-25T14:19:11.360Z,39.77
2018-11-25T14:23:14.244Z,39.40
2018-11-25T14:27:17.344Z,37.10
2018-11-25T14:31:20.235Z,35.93
2018-11-25T14:35:23.120Z,40.43
2018-11-25T14:39:26.205Z,39.40
2018-11-25T14:43:29.102Z,36.13
2018-11-25T14:47:31.956Z,41.00
2018-11-25T14:51:35.060Z,38.00
2018-11-25T14:55:37.953Z,36.87
2018-11-25T14:59:40.828Z,36.63
2018-11-25T15:03:43.909Z,39.07
2018-11-25T15:07:46.839Z,39.67
2018-11-25T15:11:49.704Z,39.27
2018-11-25T15:15:52.605Z,40.43
2018-11-25T15:19:55.673Z,36.97
2018-11-25T15:23:58.752Z,39.47
2018-11-25T15:28:01.622Z,38.27
2018-11-25T15:32:04.720Z,33.73
2018-11-25T15:36:07.674Z,38.63
2018-11-25T15:40:12.364Z,37.20
2018-11-25T15:44:15.228Z,39.87
2018-11-25T15:48:20.096Z,35.00
2018-11-25T15:52:23.179Z,36.07
2018-11-25T15:56:26.508Z,37.37
2018-11-25T16:00:29.623Z,36.83
2018-11-25T16:04:32.479Z,40.30
2018-11-25T16:08:38.367Z,38.40
2018-11-25T16:12:38.330Z,39.40
2018-11-25T16:16:41.196Z,35.60
2018-11-25T16:20:44.064Z,37.43
2018-11-25T16:24:46.920Z,38.73
2018-11-25T16:28:50.776Z,40.03
2018-11-25T16:32:53.693Z,39.10
2018-11-25T16:36:56.568Z,37.33
2018-11-25T16:40:59.637Z,35.47
2018-11-25T16:45:02.514Z,36.93
2018-11-25T16:49:05.759Z,35.67
2018-11-25T16:53:08.632Z,37.40
2018-11-25T16:57:11.501Z,38.77
2018-11-25T17:01:14.588Z,37.50
2018-11-25T17:05:18.262Z,38.07
2018-11-25T17:09:21.124Z,39.57
2018-11-25T17:13:23.996Z,35.93
2018-11-25T17:17:27.406Z,34.87
2018-11-25T17:21:30.280Z,39.10
2018-11-25T17:25:33.361Z,34.10
2018-11-25T17:29:36.235Z,41.60
2018-11-25T17:33:39.140Z,38.33
2018-11-25T17:37:42.245Z,37.00
2018-11-25T17:41:45.115Z,33.57
2018-11-25T17:45:47.979Z,34.30
2018-11-25T17:49:51.068Z,35.07
2018-11-25T17:53:53.928Z,35.63
2018-11-25T17:57:56.805Z,33.00
2018-11-25T18:01:59.660Z,34.50
2018-11-25T18:06:02.548Z,35.10
2018-11-25T18:10:07.923Z,31.83
2018-11-25T18:14:10.800Z,33.10
2018-11-25T18:18:21.975Z,33.03
2018-11-25T18:22:26.169Z,32.67
2018-11-25T18:26:29.060Z,31.10
2018-11-25T18:30:31.936Z,32.93
2018-11-25T18:34:34.816Z,32.60
2018-11-25T18:38:37.684Z,32.50
2018-11-25T18:42:41.265Z,31.33
2018-11-25T18:46:46.980Z,32.50
2018-11-25T18:50:47.104Z,32.80
2018-11-25T18:54:49.476Z,32.70
2018-11-25T18:58:52.340Z,30.80
2018-11-25T19:02:55.219Z,30.27
2018-11-25T19:06:58.080Z,31.43
2018-11-25T19:11:03.605Z,31.70
2018-11-25T19:15:07.451Z,30.20
2018-11-25T19:19:10.336Z,29.37
2018-11-25T19:23:13.208Z,31.57
2018-11-25T19:27:16.088Z,30.77
2018-11-25T19:31:19.161Z,31.13
2018-11-25T19:35:22.352Z,29.00
2018-11-25T19:39:25.208Z,30.43
2018-11-25T19:43:28.291Z,28.83
2018-11-25T19:47:31.144Z,31.40
2018-11-25T19:51:34.225Z,31.30
2018-11-25T19:55:37.177Z,31.90
2018-11-25T19:59:40.052Z,32.27
2018-11-25T20:03:43.137Z,33.70
2018-11-25T20:07:46.038Z,31.73
2018-11-25T20:11:48.904Z,32.07
2018-11-25T20:15:51.765Z,36.50
2018-11-25T20:19:54.633Z,34.10
2018-11-25T20:23:57.717Z,31.70
2018-11-25T20:28:00.600Z,34.50
2018-11-25T20:32:09.134Z,33.20
2018-11-25T20:36:12.235Z,36.27
2018-11-25T20:40:15.137Z,36.03
2018-11-25T20:44:18.041Z,37.00
2018-11-25T20:48:20.916Z,34.90
2018-11-25T20:52:29.324Z,36.00
2018-11-25T20:56:32.264Z,36.93
2018-11-25T21:00:35.256Z,37.53
2018-11-25T21:04:38.143Z,35.20
2018-11-25T21:08:41.002Z,38.00
2018-11-25T21:12:45.357Z,39.27
2018-11-25T21:16:48.421Z,41.17
2018-11-25T21:20:51.523Z,39.20
2018-11-25T21:24:54.167Z,36.03
2018-11-25T21:28:57.252Z,38.03
2018-11-25T21:33:00.108Z,40.40
2018-11-25T21:37:03.010Z,37.57
2018-11-25T21:41:06.112Z,35.87
2018-11-25T21:45:10.769Z,36.43
2018-11-25T21:49:13.626Z,37.77
2018-11-25T21:53:16.511Z,38.70
2018-11-25T21:57:19.596Z,40.40
2018-11-25T22:01:22.680Z,37.87
2018-11-25T22:05:25.544Z,39.60
2018-11-25T22:09:28.616Z,40.33
2018-11-25T22:13:31.472Z,40.87
2018-11-25T22:17:34.343Z,37.77
2018-11-25T22:21:37.224Z,40.17
2018-11-25T22:25:40.099Z,39.07
2018-11-25T22:29:43.164Z,36.37
2018-11-25T22:33:46.052Z,38.47
2018-11-25T22:37:48.933Z,35.70
2018-11-25T22:41:51.818Z,41.17
2018-11-25T22:45:54.675Z,37.40
2018-11-25T22:49:57.548Z,36.87
2018-11-25T22:54:00.408Z,40.23
2018-11-25T22:58:03.296Z,36.77
2018-11-25T23:02:06.365Z,35.60
2018-11-25T23:06:14.952Z,37.10
2018-11-25T23:10:17.813Z,33.30
2018-11-25T23:14:20.696Z,33.40
2018-11-25T23:18:23.769Z,32.53
2018-11-25T23:22:26.641Z,33.63
2018-11-25T23:26:29.500Z,33.90
2018-11-25T23:30:32.376Z,33.43
2018-11-25T23:34:35.232Z,33.00
2018-11-25T23:38:38.115Z,32.77
2018-11-25T23:42:40.968Z,34.00
2018-11-25T23:46:43.835Z,32.63
2018-11-25T23:50:46.696Z,33.67
2018-11-25T23:54:49.559Z,30.67
2018-11-25T23:58:52.424Z,35.87
